Main page
METAR-TAF:

METAR-TAF

Airports :

Capo Mele

Andora, Italy

latitude: 43-57N, longitude: 008-10E, elevation: 220 m

Current weather observation

The report was made 35 minutes ago, at 12:55 UTC
Wind 4 kt from the Northeast
Temperature 12°C
Humidity 50%
Pressure 1019 hPa
Visibility 10 km or more
Few clouds at a height of 1500 ft

METAR: LIMU 171255Z 04004KT 9999 FEW015 12/02 Q1019 RMK SCT QUK 2 QUL 1 E VIS MAR 20 KM VIS MIN 9999

Time: 14:30 (13:30 UTC)


TAF: missing

Weather observations and forecasts of more than 4000 airports (METAR and TAF reports).

The available stations are represented by yellow and red dots on the map.

Hover mouse over dot to see the name of the station.

Then click to see weather observations and forecasts.

To change the map : click on the green buttons with a black cross to zoom in, on the green button with a dash to zoom out, or on the green arrows for adjacent maps.


METAR-TAF: